Time;durP1;ratioP1;P1;durP2;ratioP2;P2;SDS_P1;SDS_P2;PMS_P1;PMS_P2;Temp;Humidity;BMP_temperature;BMP_pressure;BME280_temperature;BME280_humidity;BME280_pressure;Samples;Min_cycle;Max_cycle;Signal;HPM_P1;HPM_P2
2022/04/05 00:00:38;;;;;;;11.07;9.97;;;;;;;;;;5072722;28;20499;-58
2022/04/05 00:03:04;;;;;;;12.27;11.07;;;;;;;;;;5072648;28;20418;-58
2022/04/05 00:05:30;;;;;;;11.30;10.00;;;;;;;;;;5072580;28;20927;-58
2022/04/05 00:07:56;;;;;;;11.53;10.40;;;;;;;;;;5054020;28;20458;-58
2022/04/05 00:10:22;;;;;;;10.40;9.27;;;;;;;;;;5072494;28;20184;-59
2022/04/05 00:12:48;;;;;;;15.67;11.47;;;;;;;;;;5072549;28;20411;-58
2022/04/05 00:15:15;;;;;;;11.93;10.47;;;;;;;;;;5072353;28;20952;-58
2022/04/05 00:17:41;;;;;;;11.10;9.40;;;;;;;;;;5054230;28;20223;-58
2022/04/05 00:20:07;;;;;;;12.00;10.67;;;;;;;;;;5072169;28;20449;-58
2022/04/05 00:22:34;;;;;;;10.07;9.00;;;;;;;;;;5068231;28;20426;-58
2022/04/05 00:25:00;;;;;;;11.73;10.53;;;;;;;;;;5067304;28;20449;-57
2022/04/05 00:27:26;;;;;;;12.57;11.23;;;;;;;;;;5072184;28;21127;-58
2022/04/05 00:29:52;;;;;;;13.27;11.87;;;;;;;;;;5072206;28;20406;-58
2022/04/05 00:32:18;;;;;;;11.40;10.23;;;;;;;;;;5072044;28;20406;-59
2022/04/05 00:34:44;;;;;;;13.00;11.20;;;;;;;;;;5071998;28;20907;-58
2022/04/05 00:37:10;;;;;;;13.97;11.80;;;;;;;;;;5071642;28;20470;-58
2022/04/05 00:39:36;;;;;;;13.77;11.97;;;;;;;;;;5071918;28;20504;-58
2022/04/05 00:42:02;;;;;;;11.30;10.07;;;;;;;;;;5063085;28;20609;-58
2022/04/05 00:44:28;;;;;;;16.90;10.93;;;;;;;;;;5071959;28;20549;-58
2022/04/05 00:46:55;;;;;;;12.83;11.33;;;;;;;;;;5071675;28;20883;-59
2022/04/05 00:49:27;;;;;;;13.90;11.77;;;;;;;;;;5071699;28;20418;-59
2022/04/05 00:51:53;;;;;;;12.33;10.93;;;;;;;;;;5071681;28;20772;-58
2022/04/05 00:54:20;;;;;;;15.00;12.00;;;;;;;;;;5071632;28;20414;-57
2022/04/05 00:56:47;;;;;;;16.07;11.77;;;;;;;;;;5070422;28;20465;-57
2022/04/05 00:59:14;;;;;;;15.67;12.77;;;;;;;;;;5071751;28;20512;-57
2022/04/05 01:01:40;;;;;;;11.73;10.20;;;;;;;;;;5071624;28;20521;-57
2022/04/05 01:04:07;;;;;;;15.07;11.97;;;;;;;;;;5071034;28;20418;-58
2022/04/05 01:06:35;;;;;;;15.77;13.07;;;;;;;;;;5071542;28;20415;-57
2022/04/05 01:09:01;;;;;;;18.57;13.03;;;;;;;;;;5071658;28;20425;-59
2022/04/05 01:11:27;;;;;;;14.70;12.03;;;;;;;;;;5071480;28;20418;-58
2022/04/05 01:13:53;;;;;;;19.53;13.67;;;;;;;;;;5071377;28;20923;-59
2022/04/05 01:16:20;;;;;;;15.87;11.53;;;;;;;;;;5068607;28;20467;-58
2022/04/05 01:18:46;;;;;;;14.10;10.77;;;;;;;;;;5045966;28;20610;-59
2022/04/05 01:21:14;;;;;;;14.93;12.73;;;;;;;;;;5053364;28;20457;-58
2022/04/05 01:23:44;;;;;;;15.27;12.50;;;;;;;;;;5071359;28;20406;-58
2022/04/05 01:26:10;;;;;;;15.93;12.77;;;;;;;;;;5071472;28;20502;-59
2022/04/05 01:28:36;;;;;;;18.73;13.53;;;;;;;;;;5071334;28;21042;-58
2022/04/05 01:31:02;;;;;;;16.40;12.33;;;;;;;;;;5053068;28;20452;-58
2022/04/05 01:33:28;;;;;;;16.77;13.40;;;;;;;;;;5053196;28;20188;-58
2022/04/05 01:35:54;;;;;;;15.20;12.73;;;;;;;;;;5052785;28;20200;-59
2022/04/05 01:38:20;;;;;;;16.20;12.60;;;;;;;;;;5071067;28;20949;-59
2022/04/05 01:40:47;;;;;;;16.30;12.90;;;;;;;;;;5071270;28;20183;-58
2022/04/05 01:43:13;;;;;;;20.60;12.57;;;;;;;;;;5071276;28;20410;-58
2022/04/05 01:45:42;;;;;;;14.30;10.63;;;;;;;;;;5071190;28;20411;-58
2022/04/05 01:48:08;;;;;;;13.70;10.40;;;;;;;;;;5070973;28;20418;-59
2022/04/05 01:50:34;;;;;;;15.63;12.33;;;;;;;;;;5071208;28;20415;-58
2022/04/05 01:53:00;;;;;;;15.73;12.20;;;;;;;;;;5070909;28;20184;-58
2022/04/05 01:55:26;;;;;;;12.80;10.07;;;;;;;;;;5062835;28;20423;-59
2022/04/05 01:57:52;;;;;;;16.87;10.90;;;;;;;;;;5071096;28;20473;-58
2022/04/05 02:00:18;;;;;;;13.17;9.70;;;;;;;;;;5070900;28;20417;-58
2022/04/05 02:02:44;;;;;;;23.93;12.13;;;;;;;;;;5071016;28;20406;-58
2022/04/05 02:05:11;;;;;;;13.63;9.80;;;;;;;;;;5070646;28;20176;-59
2022/04/05 02:07:37;;;;;;;14.50;11.00;;;;;;;;;;5052642;28;20429;-59
2022/04/05 02:10:04;;;;;;;11.50;9.53;;;;;;;;;;5057468;28;20891;-58
2022/04/05 02:12:30;;;;;;;9.80;8.47;;;;;;;;;;5062588;28;20454;-59
2022/04/05 02:14:56;;;;;;;12.80;8.57;;;;;;;;;;5070845;28;20454;-60
2022/04/05 02:17:22;;;;;;;13.50;8.40;;;;;;;;;;5054195;28;20458;-58
2022/04/05 02:19:48;;;;;;;11.67;8.93;;;;;;;;;;5056675;28;20423;-58
2022/04/05 02:22:13;;;;;;;11.60;8.57;;;;;;;;;;5056503;28;20885;-58
2022/04/05 02:24:39;;;;;;;10.83;7.97;;;;;;;;;;5056811;28;20642;-59
2022/04/05 02:27:05;;;;;;;10.77;7.53;;;;;;;;;;5074470;28;20176;-59
2022/04/05 02:29:32;;;;;;;8.20;6.80;;;;;;;;;;5065423;28;20430;-59
2022/04/05 02:31:58;;;;;;;10.07;7.60;;;;;;;;;;5074368;28;20407;-58
2022/04/05 02:34:24;;;;;;;8.93;7.00;;;;;;;;;;5074277;28;20429;-58
2022/04/05 02:36:50;;;;;;;8.63;7.10;;;;;;;;;;5074351;28;20462;-58
2022/04/05 02:39:16;;;;;;;9.43;7.10;;;;;;;;;;5074362;28;20410;-58
2022/04/05 02:41:42;;;;;;;10.00;8.20;;;;;;;;;;5074366;28;20403;-58
2022/04/05 02:44:08;;;;;;;7.40;6.70;;;;;;;;;;5074157;28;20415;-59
2022/04/05 02:46:34;;;;;;;7.20;6.20;;;;;;;;;;5065250;28;20448;-58
2022/04/05 02:49:00;;;;;;;11.63;8.23;;;;;;;;;;5073718;28;20418;-59
2022/04/05 02:51:26;;;;;;;8.10;7.00;;;;;;;;;;5073539;28;20779;-58
2022/04/05 02:53:52;;;;;;;7.70;6.90;;;;;;;;;;5073537;28;20556;-59
2022/04/05 02:56:18;;;;;;;6.97;6.23;;;;;;;;;;5055521;28;20821;-58
2022/04/05 02:58:44;;;;;;;10.37;6.40;;;;;;;;;;5073417;28;20424;-58
2022/04/05 03:01:10;;;;;;;8.50;6.80;;;;;;;;;;5073280;28;20793;-58
2022/04/05 03:03:36;;;;;;;10.67;7.23;;;;;;;;;;5065003;28;20399;-58
2022/04/05 03:06:02;;;;;;;7.10;6.07;;;;;;;;;;5073503;28;20902;-58
2022/04/05 03:08:28;;;;;;;7.87;7.07;;;;;;;;;;5073707;28;20184;-58
2022/04/05 03:10:54;;;;;;;9.50;7.53;;;;;;;;;;5055339;28;20502;-58
2022/04/05 03:13:21;;;;;;;8.80;7.30;;;;;;;;;;5072665;28;20469;-58
2022/04/05 03:15:47;;;;;;;6.93;5.93;;;;;;;;;;5072868;28;20407;-58
2022/04/05 03:18:13;;;;;;;8.80;5.93;;;;;;;;;;5054091;28;20469;-58
2022/04/05 03:20:39;;;;;;;9.30;7.20;;;;;;;;;;5055070;28;20454;-58
2022/04/05 03:23:07;;;;;;;11.70;6.70;;;;;;;;;;5073165;28;20477;-58
2022/04/05 03:25:33;;;;;;;8.03;6.60;;;;;;;;;;5073104;28;20403;-58
2022/04/05 03:28:03;;;;;;;6.20;5.60;;;;;;;;;;5072820;28;20407;-58
2022/04/05 03:30:29;;;;;;;6.87;5.90;;;;;;;;;;5072864;28;20410;-58
2022/04/05 03:32:55;;;;;;;6.73;6.00;;;;;;;;;;5072582;28;20481;-58
2022/04/05 03:35:21;;;;;;;10.17;6.13;;;;;;;;;;5072812;28;20927;-58
2022/04/05 03:37:47;;;;;;;7.03;5.30;;;;;;;;;;5072370;28;20458;-59
2022/04/05 03:40:14;;;;;;;6.90;5.50;;;;;;;;;;5072445;28;20204;-58
2022/04/05 03:42:40;;;;;;;5.73;5.23;;;;;;;;;;5063265;28;20465;-58
2022/04/05 03:45:06;;;;;;;6.77;5.63;;;;;;;;;;5072552;28;20923;-58
2022/04/05 03:47:32;;;;;;;7.00;5.93;;;;;;;;;;5054281;28;20526;-58
2022/04/05 03:49:59;;;;;;;6.30;5.67;;;;;;;;;;5053209;28;20429;-59
2022/04/05 03:52:25;;;;;;;6.30;5.07;;;;;;;;;;5072814;28;20418;-58
2022/04/05 03:54:51;;;;;;;5.20;4.80;;;;;;;;;;5071560;28;20423;-59
2022/04/05 03:57:17;;;;;;;9.17;7.10;;;;;;;;;;5072513;28;20836;-58
2022/04/05 03:59:43;;;;;;;6.33;5.73;;;;;;;;;;5071504;28;20553;-59
2022/04/05 04:02:09;;;;;;;8.13;5.90;;;;;;;;;;5074283;28;20424;-58
2022/04/05 04:04:35;;;;;;;12.70;8.30;;;;;;;;;;5070276;28;20461;-60
2022/04/05 04:07:02;;;;;;;8.30;7.43;;;;;;;;;;5072174;28;20415;-60
2022/04/05 04:09:28;;;;;;;7.90;6.90;;;;;;;;;;5054173;28;20490;-60
2022/04/05 04:11:54;;;;;;;7.77;7.00;;;;;;;;;;5049826;28;20839;-59
2022/04/05 04:14:20;;;;;;;8.40;6.80;;;;;;;;;;5062838;28;20550;-58
2022/04/05 04:16:46;;;;;;;8.33;7.13;;;;;;;;;;5075839;28;20963;-60
2022/04/05 04:19:13;;;;;;;11.60;8.53;;;;;;;;;;5083373;28;20449;-60
2022/04/05 04:21:39;;;;;;;9.30;7.70;;;;;;;;;;5082975;28;20411;-60
2022/04/05 04:24:05;;;;;;;8.73;7.90;;;;;;;;;;5064242;28;20485;-60
2022/04/05 04:26:31;;;;;;;9.83;8.67;;;;;;;;;;5062290;28;20490;-60
2022/04/05 04:29:02;;;;;;;8.83;7.93;;;;;;;;;;5058430;28;20808;-59
2022/04/05 04:31:28;;;;;;;8.33;7.30;;;;;;;;;;5070716;28;20405;-59
2022/04/05 04:33:54;;;;;;;9.43;8.43;;;;;;;;;;5062349;28;20494;-63
2022/04/05 04:36:21;;;;;;;11.80;7.90;;;;;;;;;;5080303;28;20511;-58
2022/04/05 04:38:47;;;;;;;9.03;8.13;;;;;;;;;;5053973;28;20440;-60
2022/04/05 04:41:13;;;;;;;10.20;7.10;;;;;;;;;;5071195;28;20422;-59
2022/04/05 04:43:39;;;;;;;13.73;8.90;;;;;;;;;;5068766;28;20414;-62
